Time;durP1;ratioP1;P1;durP2;ratioP2;P2;SDS_P1;SDS_P2;PMS_P1;PMS_P2;Temp;Humidity;BMP_temperature;BMP_pressure;BME280_temperature;BME280_humidity;BME280_pressure;Samples;Min_cycle;Max_cycle;Signal;HPM_P1;HPM_P2
2024/03/25 00:00:16;;;;;;;;;;;5.70;99.90;;;;;;5040962;28;19913;-77
2024/03/25 00:02:42;;;;;;;;;;;5.70;99.90;;;;;;5047145;28;19921;-77
2024/03/25 00:05:10;;;;;;;;;;;5.60;99.90;;;;;;5059798;28;19920;-77
2024/03/25 00:07:39;;;;;;;;;;;5.70;99.90;;;;;;5043324;28;19925;-76
2024/03/25 00:10:08;;;;;;;;;;;5.70;99.90;;;;;;5044668;28;19935;-77
2024/03/25 00:12:34;;;;;;;;;;;5.70;99.90;;;;;;5052228;28;19921;-77
2024/03/25 00:15:00;;;;;;;;;;;5.70;99.90;;;;;;5037253;28;19920;-77
2024/03/25 00:17:26;;;;;;;;;;;5.70;99.90;;;;;;5054228;28;19917;-77
2024/03/25 00:19:52;;;;;;;;;;;5.70;99.90;;;;;;5073613;28;19913;-77
2024/03/25 00:22:18;;;;;;;;;;;5.60;99.90;;;;;;5033586;28;20242;-77
2024/03/25 00:24:48;;;;;;;;;;;5.60;99.90;;;;;;5046572;28;20012;-77
2024/03/25 00:27:14;;;;;;;;;;;5.60;99.90;;;;;;5035515;28;20087;-76
2024/03/25 00:29:39;;;;;;;;;;;5.60;99.90;;;;;;5035662;28;20023;-77
2024/03/25 00:32:05;;;;;;;;;;;5.50;99.90;;;;;;5080982;28;19917;-77
2024/03/25 00:34:35;;;;;;;;;;;5.50;99.90;;;;;;5017879;28;20351;-77
2024/03/25 00:37:00;;;;;;;;;;;5.50;99.90;;;;;;5067811;28;19917;-77
2024/03/25 00:39:26;;;;;;;;;;;5.60;99.90;;;;;;5058255;28;19999;-77
2024/03/25 00:41:52;;;;;;;;;;;5.60;99.90;;;;;;5079359;28;19971;-78
2024/03/25 00:44:18;;;;;;;;;;;5.60;99.90;;;;;;5012990;28;20004;-77
2024/03/25 00:46:43;;;;;;;;;;;5.60;99.90;;;;;;5041380;28;19921;-76
2024/03/25 00:49:09;;;;;;;;;;;5.60;99.90;;;;;;5040269;28;19921;-77
2024/03/25 00:51:35;;;;;;;;;;;5.60;99.90;;;;;;5060641;28;20023;-77
2024/03/25 00:54:01;;;;;;;;;;;5.60;99.90;;;;;;5041381;28;19996;-77
2024/03/25 00:56:27;;;;;;;;;;;5.50;99.90;;;;;;5048302;28;19928;-77
2024/03/25 00:58:52;;;;;;;;;;;5.50;99.90;;;;;;5069557;28;19917;-77
2024/03/25 01:01:18;;;;;;;;;;;5.50;99.90;;;;;;5061548;28;19924;-77
2024/03/25 01:03:43;;;;;;;;;;;5.50;99.90;;;;;;5057281;28;19968;-77
2024/03/25 01:06:09;;;;;;;;;;;5.50;99.90;;;;;;5002645;28;19978;-77
2024/03/25 01:08:35;;;;;;;;;;;5.50;99.90;;;;;;5032996;28;19933;-77
2024/03/25 01:11:01;;;;;;;;;;;5.50;99.90;;;;;;5036465;28;19925;-77
2024/03/25 01:13:29;;;;;;;;;;;5.50;99.90;;;;;;5044320;28;21893;-77
2024/03/25 01:15:54;;;;;;;;;;;5.50;99.90;;;;;;5018346;28;19913;-77
2024/03/25 01:18:20;;;;;;;;;;;5.50;99.90;;;;;;5038530;28;19920;-77
2024/03/25 01:20:46;;;;;;;;;;;5.40;99.90;;;;;;5054756;28;20333;-77
2024/03/25 01:23:12;;;;;;;;;;;5.50;99.90;;;;;;5016879;28;19940;-77
2024/03/25 01:25:38;;;;;;;;;;;5.50;99.90;;;;;;5034381;28;19975;-77
2024/03/25 01:28:04;;;;;;;;;;;5.50;99.90;;;;;;5017511;28;19917;-77
2024/03/25 01:30:29;;;;;;;;;;;5.50;99.90;;;;;;5017781;28;19971;-77
2024/03/25 01:32:55;;;;;;;;;;;5.50;99.90;;;;;;5033980;28;20322;-77
2024/03/25 01:35:21;;;;;;;;;;;5.50;99.90;;;;;;5046979;28;19916;-77
2024/03/25 01:37:46;;;;;;;;;;;5.60;99.90;;;;;;5040225;28;19916;-75
2024/03/25 01:40:12;;;;;;;;;;;5.60;99.90;;;;;;5051320;28;19974;-76
2024/03/25 01:42:37;;;;;;;;;;;5.50;99.90;;;;;;5041159;28;19913;-77
2024/03/25 01:45:03;;;;;;;;;;;5.50;99.90;;;;;;5070219;28;19973;-76
2024/03/25 01:47:33;;;;;;;;;;;5.50;99.90;;;;;;5087974;28;20011;-78
2024/03/25 01:49:59;;;;;;;;;;;5.50;99.90;;;;;;5011646;28;19921;-77
2024/03/25 01:52:25;;;;;;;;;;;5.50;99.90;;;;;;5051714;28;20357;-77
2024/03/25 01:54:51;;;;;;;;;;;5.50;99.90;;;;;;5017318;28;19994;-77
2024/03/25 01:57:17;;;;;;;;;;;5.50;99.90;;;;;;5047186;28;19913;-77
2024/03/25 01:59:42;;;;;;;;;;;5.50;99.90;;;;;;5045781;28;20245;-77
2024/03/25 02:02:08;;;;;;;;;;;5.50;99.90;;;;;;5035475;28;20455;-75
2024/03/25 02:04:37;;;;;;;;;;;5.50;99.90;;;;;;5060955;28;19921;-77
2024/03/25 02:07:02;;;;;;;;;;;5.60;99.90;;;;;;5033696;28;19917;-77
2024/03/25 02:09:28;;;;;;;;;;;5.50;99.90;;;;;;5048708;28;19929;-75
2024/03/25 02:11:54;;;;;;;;;;;5.60;99.90;;;;;;5055772;28;20281;-77
2024/03/25 02:14:20;;;;;;;;;;;5.50;99.90;;;;;;5041567;28;19919;-77
2024/03/25 02:16:45;;;;;;;;;;;5.50;99.90;;;;;;5067634;28;20210;-77
2024/03/25 02:19:11;;;;;;;;;;;5.50;99.90;;;;;;5063273;28;20393;-77
2024/03/25 02:21:36;;;;;;;;;;;5.50;99.90;;;;;;5051242;28;20003;-76
2024/03/25 02:24:02;;;;;;;;;;;5.50;99.90;;;;;;5034456;28;19920;-77
2024/03/25 02:26:28;;;;;;;;;;;5.50;99.90;;;;;;5032562;28;20327;-77
2024/03/25 02:28:53;;;;;;;;;;;5.50;99.90;;;;;;5037354;28;19924;-76
2024/03/25 02:31:19;;;;;;;;;;;5.50;99.90;;;;;;5054260;28;20386;-77
2024/03/25 02:33:45;;;;;;;;;;;5.50;99.90;;;;;;5038075;28;19923;-77
2024/03/25 02:36:10;;;;;;;;;;;5.50;99.90;;;;;;5033910;28;20322;-76
2024/03/25 02:38:36;;;;;;;;;;;5.60;99.90;;;;;;5051346;28;20392;-77
2024/03/25 02:41:02;;;;;;;;;;;5.50;99.90;;;;;;5023620;28;20288;-76
2024/03/25 02:43:27;;;;;;;;;;;5.50;99.90;;;;;;5017650;28;19917;-77
2024/03/25 02:45:53;;;;;;;;;;;5.60;99.90;;;;;;5044036;28;20136;-77
2024/03/25 02:48:19;;;;;;;;;;;5.60;99.90;;;;;;5033314;28;21492;-77
2024/03/25 02:50:45;;;;;;;;;;;5.60;99.90;;;;;;5046315;28;19944;-77
2024/03/25 02:53:11;;;;;;;;;;;5.60;99.90;;;;;;5021099;28;19916;-77
2024/03/25 02:55:36;;;;;;;;;;;5.50;99.90;;;;;;5080160;28;19916;-77
2024/03/25 02:58:02;;;;;;;;;;;5.50;99.90;;;;;;5040885;28;20216;-76
2024/03/25 03:00:28;;;;;;;;;;;5.50;99.90;;;;;;5040690;28;20322;-76
2024/03/25 03:02:53;;;;;;;;;;;5.50;99.90;;;;;;5016651;28;20037;-76
2024/03/25 03:05:19;;;;;;;;;;;5.50;99.90;;;;;;5031424;28;19987;-76
2024/03/25 03:07:44;;;;;;;;;;;5.50;99.90;;;;;;5015686;28;19929;-76
2024/03/25 03:10:10;;;;;;;;;;;5.50;99.90;;;;;;5044348;28;20035;-77
2024/03/25 03:12:36;;;;;;;;;;;5.50;99.90;;;;;;5032733;28;19940;-76
2024/03/25 03:15:01;;;;;;;;;;;5.50;99.90;;;;;;5034584;28;19916;-76
2024/03/25 03:17:27;;;;;;;;;;;5.60;99.90;;;;;;5061499;28;19916;-76
2024/03/25 03:19:52;;;;;;;;;;;5.60;99.90;;;;;;5030413;28;20242;-76
2024/03/25 03:22:18;;;;;;;;;;;5.60;99.90;;;;;;5002353;28;20344;-75
2024/03/25 03:24:44;;;;;;;;;;;5.60;99.90;;;;;;5037777;28;19927;-76
2024/03/25 03:27:09;;;;;;;;;;;5.60;99.90;;;;;;5040182;28;20007;-75
2024/03/25 03:29:35;;;;;;;;;;;5.60;99.90;;;;;;5069128;28;19952;-76
2024/03/25 03:32:01;;;;;;;;;;;5.60;99.90;;;;;;5061033;28;19917;-76
2024/03/25 03:34:26;;;;;;;;;;;5.60;99.90;;;;;;5039456;28;19975;-77
2024/03/25 03:36:52;;;;;;;;;;;5.60;99.90;;;;;;5036692;28;19913;-76
2024/03/25 03:39:18;;;;;;;;;;;5.60;99.90;;;;;;5015530;28;19919;-76
2024/03/25 03:41:44;;;;;;;;;;;5.60;99.90;;;;;;5051568;28;19921;-77
2024/03/25 03:44:10;;;;;;;;;;;5.50;99.90;;;;;;5035837;28;19917;-75
2024/03/25 03:46:35;;;;;;;;;;;5.60;99.90;;;;;;5026567;28;19922;-76
2024/03/25 03:49:01;;;;;;;;;;;5.60;99.90;;;;;;5036228;28;20330;-75
2024/03/25 03:51:27;;;;;;;;;;;5.60;99.90;;;;;;5004654;28;19924;-76
2024/03/25 03:53:53;;;;;;;;;;;5.50;99.90;;;;;;5017588;28;19917;-77
2024/03/25 03:56:18;;;;;;;;;;;5.60;99.90;;;;;;5062102;28;19924;-76
2024/03/25 03:58:44;;;;;;;;;;;5.50;99.90;;;;;;5069437;28;19921;-77
2024/03/25 04:01:16;;;;;;;;;;;5.60;99.90;;;;;;5035923;28;19917;-74
2024/03/25 04:03:42;;;;;;;;;;;5.50;99.90;;;;;;5023655;28;19985;-75
2024/03/25 04:06:08;;;;;;;;;;;5.50;99.90;;;;;;5043422;28;20000;-75
2024/03/25 04:08:34;;;;;;;;;;;5.50;99.90;;;;;;5089447;28;19920;-76
2024/03/25 04:11:01;;;;;;;;;;;5.60;99.90;;;;;;5048062;28;19923;-75
2024/03/25 04:13:26;;;;;;;;;;;5.60;99.90;;;;;;5067613;28;19917;-76
2024/03/25 04:15:52;;;;;;;;;;;5.50;99.90;;;;;;5034213;28;20004;-76
2024/03/25 04:18:19;;;;;;;;;;;5.60;99.90;;;;;;5041051;28;19958;-76
2024/03/25 04:20:44;;;;;;;;;;;5.60;99.90;;;;;;5013709;28;19948;-76
2024/03/25 04:23:10;;;;;;;;;;;5.60;99.90;;;;;;5035277;28;19917;-76
2024/03/25 04:25:38;;;;;;;;;;;5.50;99.90;;;;;;5001192;28;19913;-77
2024/03/25 04:28:05;;;;;;;;;;;5.50;99.90;;;;;;4994139;28;19921;-78
2024/03/25 04:30:32;;;;;;;;;;;5.50;99.90;;;;;;5043565;28;20241;-76
2024/03/25 04:32:59;;;;;;;;;;;5.50;99.90;;;;;;5036909;28;19917;-76
2024/03/25 04:35:25;;;;;;;;;;;5.50;99.90;;;;;;5034383;28;20642;-76
2024/03/25 04:37:50;;;;;;;;;;;5.50;99.90;;;;;;5049101;28;19974;-76
2024/03/25 04:40:18;;;;;;;;;;;5.60;99.90;;;;;;5056169;28;20621;-76
2024/03/25 04:42:44;;;;;;;;;;;5.60;99.90;;;;;;5063670;28;19921;-76
2024/03/25 04:45:10;;;;;;;;;;;5.50;99.90;;;;;;5022288;28;19924;-76
2024/03/25 04:47:35;;;;;;;;;;;5.50;99.90;;;;;;5054149;28;19940;-75
2024/03/25 04:50:02;;;;;;;;;;;5.50;99.90;;;;;;5029309;28;20237;-76
2024/03/25 04:52:28;;;;;;;;;;;5.50;99.90;;;;;;5050884;28;19920;-76
2024/03/25 04:54:54;;;;;;;;;;;5.50;99.90;;;;;;5037243;28;19917;-76
2024/03/25 04:57:20;;;;;;;;;;;5.50;99.90;;;;;;5036193;28;19921;-77
2024/03/25 04:59:45;;;;;;;;;;;5.50;99.90;;;;;;5064814;28;20231;-76
2024/03/25 05:02:11;;;;;;;;;;;5.50;99.90;;;;;;5044454;28;19913;-76
2024/03/25 05:04:36;;;;;;;;;;;5.50;99.90;;;;;;5039499;28;19925;-76
2024/03/25 05:07:02;;;;;;;;;;;5.50;99.90;;;;;;5064024;28;19917;-76
2024/03/25 05:09:28;;;;;;;;;;;5.50;99.90;;;;;;5060699;28;19944;-76
2024/03/25 05:11:53;;;;;;;;;;;5.50;99.90;;;;;;5034774;28;20187;-76
2024/03/25 05:14:19;;;;;;;;;;;5.40;99.90;;;;;;5013205;28;20346;-77
2024/03/25 05:16:45;;;;;;;;;;;5.40;99.90;;;;;;5038904;28;19913;-77
2024/03/25 05:19:10;;;;;;;;;;;5.40;99.90;;;;;;4996265;28;19928;-76
2024/03/25 05:21:36;;;;;;;;;;;5.40;99.90;;;;;;5048688;28;19913;-76
2024/03/25 05:24:02;;;;;;;;;;;5.40;99.90;;;;;;5031685;28;19923;-77
2024/03/25 05:26:27;;;;;;;;;;;5.40;99.90;;;;;;5033975;28;19916;-77
2024/03/25 05:28:56;;;;;;;;;;;5.30;99.90;;;;;;5034020;28;19917;-77
2024/03/25 05:31:22;;;;;;;;;;;5.40;99.90;;;;;;5050948;28;19917;-76
2024/03/25 05:33:48;;;;;;;;;;;5.40;99.90;;;;;;5017890;28;19920;-75
2024/03/25 05:36:14;;;;;;;;;;;5.30;99.90;;;;;;5034016;28;19913;-77
2024/03/25 05:38:40;;;;;;;;;;;5.30;99.90;;;;;;5050436;28;20338;-77
2024/03/25 05:41:05;;;;;;;;;;;5.40;99.90;;;;;;5063186;28;19917;-76
2024/03/25 05:43:31;;;;;;;;;;;5.40;99.90;;;;;;5087561;28;19913;-75
2024/03/25 05:45:57;;;;;;;;;;;5.40;99.90;;;;;;5067782;28;19921;-76
2024/03/25 05:48:26;;;;;;;;;;;5.30;99.90;;;;;;5017280;28;19982;-76
2024/03/25 05:51:01;;;;;;;;;;;5.40;99.90;;;;;;5016630;28;19917;-76
2024/03/25 05:53:27;;;;;;;;;;;5.40;99.90;;;;;;5080412;28;19916;-77
2024/03/25 05:55:53;;;;;;;;;;;5.40;99.90;;;;;;4998744;28;19913;-76
2024/03/25 05:58:18;;;;;;;;;;;5.50;99.90;;;;;;5017871;28;20230;-77
2024/03/25 06:00:46;;;;;;;;;;;5.50;99.90;;;;;;5039322;28;19948;-76
2024/03/25 06:03:11;;;;;;;;;;;5.40;99.90;;;;;;5010162;28;20307;-76
2024/03/25 06:05:37;;;;;;;;;;;5.50;99.90;;;;;;5001601;28;20012;-77
2024/03/25 06:08:03;;;;;;;;;;;5.50;99.90;;;;;;5016239;28;19921;-77
2024/03/25 06:10:28;;;;;;;;;;;5.50;99.90;;;;;;5038952;28;19922;-76
2024/03/25 06:12:54;;;;;;;;;;;5.50;99.90;;;;;;5016805;28;19944;-76
2024/03/25 06:15:20;;;;;;;;;;;5.60;99.90;;;;;;5036819;28;19998;-77
2024/03/25 06:17:45;;;;;;;;;;;5.60;99.90;;;;;;5039797;28;20357;-77
2024/03/25 06:20:11;;;;;;;;;;;5.60;99.90;;;;;;5045207;28;20622;-76
2024/03/25 06:22:36;;;;;;;;;;;5.60;99.90;;;;;;5064558;28;20008;-76
2024/03/25 06:25:02;;;;;;;;;;;5.60;99.90;;;;;;5068787;28;20059;-77
2024/03/25 06:27:29;;;;;;;;;;;5.60;99.90;;;;;;5064248;28;19928;-77
2024/03/25 06:34:14;;;;;;;;;;;5.60;99.90;;;;;;5044128;28;19921;-77
2024/03/25 06:35:25;;;;;;;;;;;5.60;99.90;;;;;;5014058;28;20328;-76
2024/03/25 06:37:50;;;;;;;;;;;5.60;99.90;;;;;;5068596;28;19917;-76
2024/03/25 06:40:16;;;;;;;;;;;5.70;99.90;;;;;;5017221;28;19925;-77
2024/03/25 06:42:42;;;;;;;;;;;5.70;99.90;;;;;;5049848;28;19928;-77
2024/03/25 06:45:08;;;;;;;;;;;5.70;99.90;;;;;;5050157;28;19913;-77
2024/03/25 06:47:33;;;;;;;;;;;5.60;99.90;;;;;;5017444;28;19917;-77
2024/03/25 06:49:59;;;;;;;;;;;5.60;99.90;;;;;;5041056;28;20338;-77
2024/03/25 06:52:24;;;;;;;;;;;5.60;99.90;;;;;;5016956;28;19916;-77
2024/03/25 06:54:50;;;;;;;;;;;5.60;99.90;;;;;;5035889;28;19923;-75
2024/03/25 06:57:16;;;;;;;;;;;5.70;99.90;;;;;;5045111;28;19928;-77
2024/03/25 06:59:41;;;;;;;;;;;5.60;99.90;;;;;;5088833;28;19917;-77
2024/03/25 07:02:07;;;;;;;;;;;5.70;99.90;;;;;;5021559;28;19919;-77
2024/03/25 07:04:33;;;;;;;;;;;5.60;99.90;;;;;;5020213;28;19956;-77
2024/03/25 07:06:58;;;;;;;;;;;5.60;99.90;;;;;;5032291;28;19917;-77
2024/03/25 07:09:24;;;;;;;;;;;5.70;99.90;;;;;;5026810;28;20023;-77
2024/03/25 07:11:50;;;;;;;;;;;5.70;99.90;;;;;;5015337;28;19956;-76
2024/03/25 07:14:16;;;;;;;;;;;5.80;99.90;;;;;;5026805;28;19914;-77
2024/03/25 07:16:42;;;;;;;;;;;5.80;99.90;;;;;;5037658;28;19913;-77
2024/03/25 07:19:07;;;;;;;;;;;5.80;99.90;;;;;;5070131;28;19928;-77
2024/03/25 07:21:33;;;;;;;;;;;5.90;99.90;;;;;;5066753;28;19913;-77
2024/03/25 07:23:59;;;;;;;;;;;5.90;99.90;;;;;;5056994;28;19921;-77
2024/03/25 07:26:24;;;;;;;;;;;5.90;99.90;;;;;;5043960;28;20012;-77
2024/03/25 07:28:50;;;;;;;;;;;5.90;99.90;;;;;;5003657;28;19917;-76
2024/03/25 07:31:16;;;;;;;;;;;6.00;99.90;;;;;;5036215;28;20062;-76
2024/03/25 07:33:41;;;;;;;;;;;5.90;99.90;;;;;;5074331;28;20022;-75
2024/03/25 07:36:07;;;;;;;;;;;6.00;99.90;;;;;;5038463;28;19917;-76
2024/03/25 07:38:33;;;;;;;;;;;6.00;99.90;;;;;;5036549;28;19926;-76
2024/03/25 07:41:03;;;;;;;;;;;6.00;99.90;;;;;;5050582;28;19929;-76
2024/03/25 07:43:28;;;;;;;;;;;6.00;99.90;;;;;;5042037;28;19917;-76
2024/03/25 07:45:55;;;;;;;;;;;6.00;99.90;;;;;;5042240;28;20468;-76
2024/03/25 07:48:21;;;;;;;;;;;6.20;99.90;;;;;;5035836;28;19952;-76
2024/03/25 07:50:47;;;;;;;;;;;6.10;99.90;;;;;;5023982;28;20324;-75
2024/03/25 07:53:12;;;;;;;;;;;6.10;99.90;;;;;;5004876;28;20361;-77
2024/03/25 07:55:38;;;;;;;;;;;6.10;99.90;;;;;;5027376;28;19987;-76
2024/03/25 07:58:04;;;;;;;;;;;6.10;99.90;;;;;;5042477;28;20369;-75
2024/03/25 08:00:29;;;;;;;;;;;6.10;99.90;;;;;;5060690;28;20605;-76
2024/03/25 08:02:55;;;;;;;;;;;6.10;99.90;;;;;;5050679;28;19976;-76
2024/03/25 08:05:22;;;;;;;;;;;6.10;99.90;;;;;;5037431;28;19913;-76
2024/03/25 08:07:48;;;;;;;;;;;6.20;99.90;;;;;;5069310;28;19917;-77
2024/03/25 08:10:13;;;;;;;;;;;6.20;99.90;;;;;;5036357;28;19921;-76
2024/03/25 08:12:39;;;;;;;;;;;6.30;99.90;;;;;;5043482;28;19925;-76
2024/03/25 08:15:05;;;;;;;;;;;6.30;99.90;;;;;;5037880;28;19917;-76
2024/03/25 08:17:30;;;;;;;;;;;6.30;99.90;;;;;;5053560;28;19917;-75
2024/03/25 08:19:56;;;;;;;;;;;6.30;99.90;;;;;;5058832;28;20293;-76
2024/03/25 08:22:22;;;;;;;;;;;6.40;99.90;;;;;;5019896;28;20372;-75
2024/03/25 08:24:47;;;;;;;;;;;6.40;99.90;;;;;;5048361;28;20248;-76
2024/03/25 08:27:13;;;;;;;;;;;6.50;99.90;;;;;;5036418;28;19978;-76
2024/03/25 08:29:38;;;;;;;;;;;6.50;99.90;;;;;;5043108;28;19946;-76
2024/03/25 08:32:06;;;;;;;;;;;6.50;99.90;;;;;;5036487;28;19929;-76
2024/03/25 08:34:31;;;;;;;;;;;6.60;99.90;;;;;;5035385;28;20296;-75
2024/03/25 08:36:57;;;;;;;;;;;6.70;99.90;;;;;;5052002;28;19921;-75
2024/03/25 08:39:23;;;;;;;;;;;6.70;99.90;;;;;;5053766;28;19913;-77
2024/03/25 08:41:48;;;;;;;;;;;6.70;99.90;;;;;;5035891;28;19977;-77
2024/03/25 08:44:14;;;;;;;;;;;6.70;99.90;;;;;;5018079;28;19989;-77
2024/03/25 08:46:40;;;;;;;;;;;6.70;99.90;;;;;;5052860;28;19918;-76
2024/03/25 08:49:05;;;;;;;;;;;6.70;99.90;;;;;;5035569;28;20392;-76
2024/03/25 08:51:31;;;;;;;;;;;6.70;99.90;;;;;;5036240;28;20752;-76
2024/03/25 08:53:57;;;;;;;;;;;6.60;99.90;;;;;;5039145;28;19924;-75
2024/03/25 08:56:22;;;;;;;;;;;6.60;99.90;;;;;;5068868;28;20605;-77
2024/03/25 08:58:48;;;;;;;;;;;6.60;99.90;;;;;;5043598;28;20011;-76
2024/03/25 09:01:15;;;;;;;;;;;6.50;99.90;;;;;;5036536;28;20003;-76
2024/03/25 09:03:41;;;;;;;;;;;6.60;99.90;;;;;;5032228;28;19925;-75
2024/03/25 09:06:07;;;;;;;;;;;6.70;99.90;;;;;;5034745;28;20066;-75
2024/03/25 09:11:02;;;;;;;;;;;6.70;99.90;;;;;;5050060;28;19921;-77
2024/03/25 09:11:19;;;;;;;;;;;6.70;99.90;;;;;;5046340;28;19978;-76
2024/03/25 09:13:44;;;;;;;;;;;6.70;99.90;;;;;;5052536;28;19925;-76
2024/03/25 09:16:10;;;;;;;;;;;6.80;99.90;;;;;;5048862;28;19927;-76
2024/03/25 09:18:35;;;;;;;;;;;6.80;99.90;;;;;;5030652;28;19913;-77
2024/03/25 09:21:01;;;;;;;;;;;6.70;99.90;;;;;;5065105;28;20006;-77
2024/03/25 09:23:27;;;;;;;;;;;6.80;99.90;;;;;;5034742;28;19917;-77
2024/03/25 09:25:53;;;;;;;;;;;6.80;99.90;;;;;;5017379;28;19924;-77
2024/03/25 09:28:19;;;;;;;;;;;6.80;99.90;;;;;;5084275;28;19917;-76
2024/03/25 09:30:44;;;;;;;;;;;6.90;99.90;;;;;;5034806;28;19925;-76
2024/03/25 09:33:10;;;;;;;;;;;7.00;99.90;;;;;;5031307;28;19913;-77
2024/03/25 09:35:36;;;;;;;;;;;7.00;99.90;;;;;;5058253;28;19948;-77
2024/03/25 09:38:03;;;;;;;;;;;7.00;99.90;;;;;;5063084;28;20249;-76
2024/03/25 09:40:29;;;;;;;;;;;7.00;99.90;;;;;;5041350;28;20003;-75
2024/03/25 09:43:00;;;;;;;;;;;7.10;99.90;;;;;;5051750;28;19921;-74
2024/03/25 09:45:25;;;;;;;;;;;7.20;99.90;;;;;;5010890;28;20275;-76
2024/03/25 09:47:51;;;;;;;;;;;7.20;99.90;;;;;;5030429;28;20015;-75
2024/03/25 09:50:19;;;;;;;;;;;7.30;99.90;;;;;;5016676;28;19925;-75
2024/03/25 09:52:48;;;;;;;;;;;7.30;99.90;;;;;;5017798;28;19975;-76
2024/03/25 09:55:14;;;;;;;;;;;7.30;99.90;;;;;;5057646;28;19914;-76
2024/03/25 09:57:41;;;;;;;;;;;7.30;99.90;;;;;;5048678;28;19967;-76
2024/03/25 10:00:09;;;;;;;;;;;7.40;99.90;;;;;;5046873;28;19960;-77
2024/03/25 10:02:35;;;;;;;;;;;7.50;99.90;;;;;;5034592;28;19925;-76
2024/03/25 10:05:02;;;;;;;;;;;7.40;99.90;;;;;;5016089;28;19914;-74
2024/03/25 10:07:28;;;;;;;;;;;7.40;99.90;;;;;;5018590;28;19921;-76
2024/03/25 10:09:56;;;;;;;;;;;7.50;99.90;;;;;;5022450;28;19970;-77
2024/03/25 10:12:21;;;;;;;;;;;7.40;99.90;;;;;;5034161;28;19913;-76
2024/03/25 10:14:47;;;;;;;;;;;7.40;99.90;;;;;;5057630;28;20003;-75
2024/03/25 10:17:13;;;;;;;;;;;7.40;99.90;;;;;;5017904;28;19917;-75
2024/03/25 10:19:39;;;;;;;;;;;7.40;99.90;;;;;;5034860;28;19939;-76
2024/03/25 10:22:05;;;;;;;;;;;7.40;99.90;;;;;;5051713;28;19974;-75
2024/03/25 10:24:39;;;;;;;;;;;7.40;99.90;;;;;;5042283;28;20342;-77
2024/03/25 10:27:05;;;;;;;;;;;7.40;99.90;;;;;;5061128;28;19920;-76
2024/03/25 10:29:31;;;;;;;;;;;7.40;99.90;;;;;;5048601;28;19987;-76
2024/03/25 10:32:00;;;;;;;;;;;7.40;99.90;;;;;;5034509;28;20004;-76
2024/03/25 10:34:26;;;;;;;;;;;7.40;99.90;;;;;;5041379;28;19921;-76
2024/03/25 10:36:52;;;;;;;;;;;7.40;99.90;;;;;;5016624;28;20371;-75
2024/03/25 10:39:19;;;;;;;;;;;7.50;99.90;;;;;;5028753;28;20594;-76
2024/03/25 10:41:45;;;;;;;;;;;7.50;99.90;;;;;;5046161;28;19944;-76
2024/03/25 10:44:11;;;;;;;;;;;7.40;99.90;;;;;;5045193;28;19913;-76
2024/03/25 10:46:37;;;;;;;;;;;7.50;99.90;;;;;;5039746;28;19917;-76
2024/03/25 10:49:16;;;;;;;;;;;7.50;99.90;;;;;;5014180;28;19921;-76
2024/03/25 10:51:42;;;;;;;;;;;7.50;99.90;;;;;;5063753;28;19974;-76
2024/03/25 10:54:07;;;;;;;;;;;7.50;99.90;;;;;;5035630;28;20557;-76
2024/03/25 10:56:33;;;;;;;;;;;7.50;99.90;;;;;;5036540;28;19916;-76
2024/03/25 10:58:59;;;;;;;;;;;7.50;99.90;;;;;;5063575;28;20035;-76
2024/03/25 11:01:25;;;;;;;;;;;7.50;99.90;;;;;;5066684;28;19917;-76
2024/03/25 11:03:50;;;;;;;;;;;7.50;99.90;;;;;;4996988;28;19922;-76
2024/03/25 11:06:19;;;;;;;;;;;7.50;99.90;;;;;;5042550;28;19917;-76
2024/03/25 11:08:47;;;;;;;;;;;7.50;99.90;;;;;;5038559;28;19948;-76
2024/03/25 11:11:15;;;;;;;;;;;7.50;99.90;;;;;;5065014;28;19913;-76
2024/03/25 11:13:42;;;;;;;;;;;7.50;99.90;;;;;;5057509;28;20253;-76
2024/03/25 11:16:07;;;;;;;;;;;7.50;99.90;;;;;;5033539;28;20318;-76
2024/03/25 11:18:33;;;;;;;;;;;7.60;99.90;;;;;;5077344;28;19913;-77
2024/03/25 11:21:05;;;;;;;;;;;7.60;99.90;;;;;;5031877;28;19921;-76
2024/03/25 11:23:44;;;;;;;;;;;7.70;99.90;;;;;;5007894;28;19924;-76
2024/03/25 11:26:17;;;;;;;;;;;7.80;99.90;;;;;;5019139;28;19913;-76
2024/03/25 11:28:42;;;;;;;;;;;7.80;99.90;;;;;;5049327;28;20254;-76
2024/03/25 11:31:08;;;;;;;;;;;7.90;99.90;;;;;;5032383;28;20256;-75
2024/03/25 11:33:36;;;;;;;;;;;7.90;99.90;;;;;;5001587;28;20002;-77
2024/03/25 11:36:02;;;;;;;;;;;8.00;99.90;;;;;;5039030;28;20338;-76
2024/03/25 11:38:28;;;;;;;;;;;8.00;99.90;;;;;;4997270;28;19925;-76
2024/03/25 11:40:54;;;;;;;;;;;8.10;99.90;;;;;;5051262;28;19982;-76
2024/03/25 11:43:19;;;;;;;;;;;8.20;99.90;;;;;;5019447;28;20266;-76
2024/03/25 11:45:48;;;;;;;;;;;8.30;99.90;;;;;;5026936;28;20429;-76
2024/03/25 11:48:17;;;;;;;;;;;8.20;99.90;;;;;;5046381;28;19944;-76
2024/03/25 11:50:46;;;;;;;;;;;8.30;99.90;;;;;;5077937;28;20362;-76
2024/03/25 11:53:15;;;;;;;;;;;8.30;99.90;;;;;;5003726;28;19917;-76
2024/03/25 11:55:48;;;;;;;;;;;8.30;99.90;;;;;;5001888;28;19929;-76
2024/03/25 11:58:14;;;;;;;;;;;8.20;99.90;;;;;;5016102;28;20345;-76
2024/03/25 12:00:49;;;;;;;;;;;8.20;99.90;;;;;;5027964;28;20293;-77
2024/03/25 12:03:20;;;;;;;;;;;8.20;99.90;;;;;;5030658;28;20350;-76
2024/03/25 12:05:45;;;;;;;;;;;8.20;99.90;;;;;;5051148;28;19928;-76
2024/03/25 12:08:12;;;;;;;;;;;8.20;99.90;;;;;;5035468;28;19917;-75
2024/03/25 12:13:22;;;;;;;;;;;8.30;99.90;;;;;;5051303;28;19917;-75
2024/03/25 12:15:48;;;;;;;;;;;8.30;99.90;;;;;;5024080;28;19929;-75
2024/03/25 12:18:14;;;;;;;;;;;8.40;99.90;;;;;;5057438;28;19999;-76
2024/03/25 12:20:39;;;;;;;;;;;8.30;99.90;;;;;;5003160;28;20679;-76
2024/03/25 12:23:05;;;;;;;;;;;8.30;99.90;;;;;;5068005;28;19990;-77
2024/03/25 12:25:31;;;;;;;;;;;8.30;99.90;;;;;;5019327;28;19913;-77
2024/03/25 12:27:57;;;;;;;;;;;8.40;99.90;;;;;;5003661;28;19913;-76
2024/03/25 12:30:22;;;;;;;;;;;8.30;99.90;;;;;;5001333;28;19928;-76
2024/03/25 12:32:48;;;;;;;;;;;8.20;99.90;;;;;;5041646;28;19960;-77
2024/03/25 12:35:15;;;;;;;;;;;8.20;99.90;;;;;;5050067;28;20238;-77
2024/03/25 12:37:42;;;;;;;;;;;8.20;99.90;;;;;;5033138;28;19917;-77
2024/03/25 12:40:31;;;;;;;;;;;8.20;99.90;;;;;;5013935;28;20630;-77
2024/03/25 12:42:56;;;;;;;;;;;8.10;99.90;;;;;;5013691;28;19991;-76
2024/03/25 12:45:23;;;;;;;;;;;8.10;99.90;;;;;;5031049;28;20318;-76
2024/03/25 12:47:49;;;;;;;;;;;8.20;99.90;;;;;;5040527;28;19917;-76
2024/03/25 12:50:15;;;;;;;;;;;8.20;99.90;;;;;;5034953;28;19921;-77
2024/03/25 12:52:41;;;;;;;;;;;8.10;99.90;;;;;;5033222;28;19948;-76
2024/03/25 12:55:06;;;;;;;;;;;8.20;99.90;;;;;;5046404;28;20004;-76
2024/03/25 12:57:32;;;;;;;;;;;8.20;99.90;;;;;;5001544;28;19917;-76
2024/03/25 12:59:58;;;;;;;;;;;8.30;99.90;;;;;;5035041;28;19921;-75
2024/03/25 13:02:24;;;;;;;;;;;8.30;99.90;;;;;;5020226;28;19917;-76
2024/03/25 13:04:49;;;;;;;;;;;8.30;99.90;;;;;;5066650;28;19922;-76
2024/03/25 13:07:15;;;;;;;;;;;8.20;99.90;;;;;;5032104;28;20672;-76
2024/03/25 13:09:40;;;;;;;;;;;8.20;99.90;;;;;;5027122;28;19917;-76
2024/03/25 13:12:06;;;;;;;;;;;8.20;99.90;;;;;;5036025;28;20622;-76
2024/03/25 13:14:32;;;;;;;;;;;8.20;99.90;;;;;;5054774;28;19917;-75
2024/03/25 13:16:57;;;;;;;;;;;8.30;99.90;;;;;;5066370;28;19995;-76
2024/03/25 13:19:23;;;;;;;;;;;8.30;99.90;;;;;;5016782;28;19984;-76
2024/03/25 13:21:49;;;;;;;;;;;8.40;99.90;;;;;;5045917;28;19928;-76
2024/03/25 13:24:14;;;;;;;;;;;8.50;99.90;;;;;;5027783;28;20048;-77
2024/03/25 13:26:40;;;;;;;;;;;8.50;99.90;;;;;;5068056;28;19928;-78
2024/03/25 13:29:07;;;;;;;;;;;8.60;99.90;;;;;;5062361;28;20023;-76
2024/03/25 13:31:33;;;;;;;;;;;8.70;99.90;;;;;;5057785;28;20026;-76
2024/03/25 13:33:58;;;;;;;;;;;8.90;99.90;;;;;;5039777;28;19972;-75
2024/03/25 13:36:24;;;;;;;;;;;9.00;99.90;;;;;;5048363;28;19921;-76
2024/03/25 13:38:50;;;;;;;;;;;9.00;99.90;;;;;;5042165;28;19917;-76
2024/03/25 13:41:18;;;;;;;;;;;9.10;99.90;;;;;;5018706;28;19962;-76
2024/03/25 13:43:43;;;;;;;;;;;9.10;99.90;;;;;;5034778;28;19951;-76
2024/03/25 13:46:09;;;;;;;;;;;9.10;99.90;;;;;;5019609;28;19976;-75
2024/03/25 13:48:35;;;;;;;;;;;9.20;99.90;;;;;;5037403;28;20720;-76
2024/03/25 13:51:00;;;;;;;;;;;9.10;99.90;;;;;;5070351;28;19920;-76
2024/03/25 13:53:26;;;;;;;;;;;9.00;99.90;;;;;;5053612;28;19918;-76
2024/03/25 13:55:52;;;;;;;;;;;9.10;99.90;;;;;;5031056;28;19959;-75
2024/03/25 13:58:18;;;;;;;;;;;9.10;99.90;;;;;;5049227;28;20290;-76
2024/03/25 14:00:44;;;;;;;;;;;9.20;99.90;;;;;;5043112;28;20397;-76
2024/03/25 14:03:13;;;;;;;;;;;9.20;99.90;;;;;;5033710;28;19921;-76
2024/03/25 14:05:39;;;;;;;;;;;9.50;99.90;;;;;;5000502;28;19913;-76
2024/03/25 14:08:05;;;;;;;;;;;10.00;99.90;;;;;;5018932;28;20056;-78
2024/03/25 14:10:30;;;;;;;;;;;10.30;99.90;;;;;;5037076;28;19979;-75
2024/03/25 14:12:56;;;;;;;;;;;10.40;99.90;;;;;;5001324;28;19944;-77
2024/03/25 14:15:22;;;;;;;;;;;10.30;99.90;;;;;;5017291;28;19924;-77
2024/03/25 14:17:47;;;;;;;;;;;10.20;99.90;;;;;;5031141;28;19917;-77
2024/03/25 14:20:13;;;;;;;;;;;10.10;99.90;;;;;;5016601;28;20452;-76
2024/03/25 14:22:38;;;;;;;;;;;9.90;99.90;;;;;;5043424;28;19917;-75
2024/03/25 14:25:04;;;;;;;;;;;9.70;99.90;;;;;;5032964;28;19913;-76
2024/03/25 14:27:30;;;;;;;;;;;9.60;99.90;;;;;;5039214;28;19917;-76